Time;durP1;ratioP1;P1;durP2;ratioP2;P2;SDS_P1;SDS_P2;PMS_P1;PMS_P2;Temp;Humidity;BMP_temperature;BMP_pressure;BME280_temperature;BME280_humidity;BME280_pressure;Samples;Min_cycle;Max_cycle;Signal;HPM_P1;HPM_P2
2022/10/18 00:01:36;;;;;;;11.57;5.88;;;18.20;83.70;;;;;;5013445;28;20019;-78
2022/10/18 00:04:02;;;;;;;13.02;4.63;;;18.20;83.90;;;;;;4998171;28;20032;-78
2022/10/18 00:06:27;;;;;;;7.97;5.00;;;18.20;83.70;;;;;;4998724;28;20034;-78
2022/10/18 00:08:53;;;;;;;7.57;4.85;;;18.20;83.70;;;;;;4998128;28;20030;-78
2022/10/18 00:11:19;;;;;;;12.10;5.68;;;18.20;83.60;;;;;;4993589;28;20129;-78
2022/10/18 00:13:44;;;;;;;9.10;4.88;;;18.20;83.60;;;;;;4978701;28;20091;-78
2022/10/18 00:16:13;;;;;;;8.88;6.13;;;18.30;83.60;;;;;;4978780;28;20039;-78
2022/10/18 00:18:39;;;;;;;10.68;5.85;;;18.20;83.50;;;;;;4978969;28;20022;-78
2022/10/18 00:21:08;;;;;;;10.25;6.20;;;18.30;83.50;;;;;;4977355;28;20547;-78
2022/10/18 00:23:35;;;;;;;9.63;5.30;;;18.30;83.50;;;;;;5008838;28;20033;-78
2022/10/18 00:26:15;;;;;;;8.90;5.90;;;18.20;83.60;;;;;;5002392;28;20066;-78
2022/10/18 00:28:41;;;;;;;;;;;18.20;83.70;;;;;;4978684;28;20397;-78
2022/10/18 00:31:20;;;;;;;8.25;5.63;;;18.30;83.70;;;;;;4993655;28;20001;-78
2022/10/18 00:33:48;;;;;;;8.00;4.90;;;18.20;83.70;;;;;;4979280;28;20113;-78
2022/10/18 00:36:19;;;;;;;11.63;6.47;;;18.30;83.80;;;;;;4978798;28;20038;-78
2022/10/18 00:38:46;;;;;;;10.40;6.10;;;18.30;83.70;;;;;;4987980;28;20033;-78
2022/10/18 00:41:16;;;;;;;11.52;6.43;;;18.30;83.70;;;;;;4996707;28;20053;-78
2022/10/18 00:43:57;;;;;;;;;;;18.30;84.20;;;;;;4998436;28;20465;-78
2022/10/18 00:46:24;;;;;;;10.60;6.97;;;18.30;84.20;;;;;;5011800;28;19909;-78
2022/10/18 00:48:51;;;;;;;11.68;7.13;;;18.30;84.10;;;;;;5012755;28;20053;-78
2022/10/18 00:51:19;;;;;;;12.25;7.22;;;18.30;84.60;;;;;;4997883;28;20026;-78
2022/10/18 00:53:49;;;;;;;14.75;7.10;;;18.30;84.80;;;;;;4997888;28;20501;-78
2022/10/18 00:56:16;;;;;;;14.48;7.80;;;18.20;85.20;;;;;;4997252;28;20046;-78
2022/10/18 00:58:43;;;;;;;17.00;7.85;;;18.30;85.00;;;;;;4997643;28;20037;-78
2022/10/18 01:01:08;;;;;;;11.65;7.18;;;18.30;85.10;;;;;;4984462;28;20038;-78
2022/10/18 01:03:36;;;;;;;18.52;8.50;;;18.20;85.30;;;;;;4978301;28;20433;-78
2022/10/18 01:06:01;;;;;;;15.45;8.15;;;18.20;85.40;;;;;;4977648;28;20113;-78
2022/10/18 01:08:34;;;;;;;14.48;8.57;;;18.20;85.30;;;;;;4991530;28;20034;-79
2022/10/18 01:11:22;;;;;;;15.32;8.10;;;18.20;85.60;;;;;;5012598;28;20031;-78
2022/10/18 01:14:11;;;;;;;16.42;8.80;;;18.10;85.60;;;;;;5012467;28;20056;-78
2022/10/18 01:16:56;;;;;;;16.42;8.18;;;18.10;85.80;;;;;;4996722;28;20050;-78
2022/10/18 01:20:00;;;;;;;18.63;9.77;;;18.10;85.80;;;;;;4997285;28;20023;-79
2022/10/18 01:22:46;;;;;;;18.25;9.65;;;18.10;85.90;;;;;;5002930;28;20030;-78
2022/10/18 01:25:24;;;;;;;16.15;9.48;;;18.20;85.90;;;;;;5014756;28;20014;-78
2022/10/18 01:27:58;;;;;;;21.05;10.20;;;18.20;85.90;;;;;;4977520;28;20026;-78
2022/10/18 01:30:58;;;;;;;21.77;10.25;;;18.20;85.80;;;;;;4977694;28;20026;-78
2022/10/18 01:33:41;;;;;;;22.20;11.20;;;18.20;86.10;;;;;;4979591;28;20165;-78
2022/10/18 01:36:24;;;;;;;19.02;9.35;;;18.20;85.80;;;;;;4997000;28;20453;-78
2022/10/18 01:39:01;;;;;;;27.20;10.32;;;18.20;85.70;;;;;;4997226;28;20503;-78
2022/10/18 01:41:28;;;;;;;27.02;10.07;;;18.30;85.40;;;;;;4996954;28;20051;-78
2022/10/18 01:43:58;;;;;;;22.50;10.13;;;18.30;85.40;;;;;;4995768;28;20026;-79
2022/10/18 01:46:25;;;;;;;29.40;11.30;;;18.30;85.40;;;;;;4996804;28;20030;-78
2022/10/18 01:48:55;;;;;;;20.17;11.23;;;18.30;85.40;;;;;;4996780;28;20046;-78
2022/10/18 01:51:25;;;;;;;29.58;11.25;;;18.30;85.30;;;;;;4985205;28;20035;-78
2022/10/18 01:53:51;;;;;;;21.55;10.63;;;18.30;85.20;;;;;;4976131;28;20039;-79
2022/10/18 01:56:38;;;;;;;26.65;9.73;;;18.30;85.50;;;;;;4977123;28;20131;-78
2022/10/18 01:59:32;;;;;;;24.65;10.13;;;18.30;85.50;;;;;;4986695;28;20036;-78
2022/10/18 02:02:16;;;;;;;19.05;9.73;;;18.30;85.50;;;;;;4996299;28;20492;-78
2022/10/18 02:04:52;;;;;;;21.75;9.27;;;18.40;85.60;;;;;;5011522;28;20027;-78
2022/10/18 02:07:40;;;;;;;21.63;9.85;;;18.40;85.50;;;;;;4996033;28;20037;-78
2022/10/18 02:10:24;;;;;;;27.40;10.55;;;18.30;85.50;;;;;;4996510;28;20034;-79
2022/10/18 02:12:52;;;;;;;26.48;11.10;;;18.30;85.70;;;;;;4996484;28;20489;-78
2022/10/18 02:15:22;;;;;;;27.38;10.77;;;18.30;85.70;;;;;;4995974;28;20088;-78
2022/10/18 02:17:48;;;;;;;22.63;11.10;;;18.30;86.20;;;;;;4976561;28;20101;-79
2022/10/18 02:20:18;;;;;;;22.52;10.60;;;18.30;86.30;;;;;;4976700;28;20089;-78
2022/10/18 02:22:45;;;;;;;23.08;9.50;;;18.30;86.20;;;;;;5001307;28;20022;-78
2022/10/18 02:25:19;;;;;;;22.25;10.82;;;18.30;86.40;;;;;;5015937;28;20109;-78
2022/10/18 02:27:45;;;;;;;20.48;10.18;;;18.20;86.60;;;;;;5015688;28;20018;-79
2022/10/18 02:30:15;;;;;;;22.45;11.20;;;18.30;86.30;;;;;;5005897;28;20085;-79
2022/10/18 02:32:52;;;;;;;19.50;10.07;;;18.30;86.30;;;;;;5010558;28;20033;-79
2022/10/18 02:35:27;;;;;;;20.50;10.00;;;18.30;86.70;;;;;;5011040;28;20026;-79
2022/10/18 02:37:56;;;;;;;16.73;10.45;;;18.20;87.00;;;;;;4994111;28;20592;-79
2022/10/18 02:40:23;;;;;;;17.00;10.23;;;18.20;87.30;;;;;;4995375;28;20030;-78
2022/10/18 02:42:53;;;;;;;20.95;10.38;;;18.20;87.50;;;;;;4976487;28;20030;-78
2022/10/18 02:45:18;;;;;;;22.17;10.13;;;18.20;87.10;;;;;;4976548;28;20031;-79
2022/10/18 02:47:47;;;;;;;21.80;10.50;;;18.30;86.80;;;;;;4976419;28;20034;-79
2022/10/18 02:50:13;;;;;;;18.15;10.13;;;18.30;86.60;;;;;;4976396;28;20027;-79
2022/10/18 02:52:39;;;;;;;22.67;9.80;;;18.30;86.40;;;;;;4995851;28;20034;-79
2022/10/18 02:55:05;;;;;;;28.75;11.05;;;18.30;86.60;;;;;;4995676;28;20034;-78
2022/10/18 02:57:31;;;;;;;22.20;11.15;;;18.30;86.50;;;;;;4995263;28;20114;-79
2022/10/18 02:59:57;;;;;;;24.20;10.30;;;18.30;86.60;;;;;;4980583;28;20027;-79
2022/10/18 03:02:23;;;;;;;24.30;10.50;;;18.30;86.60;;;;;;4976521;28;20023;-78
2022/10/18 03:04:51;;;;;;;20.80;9.98;;;18.30;86.60;;;;;;4976631;28;20058;-79
2022/10/18 03:07:17;;;;;;;18.13;10.05;;;18.30;86.60;;;;;;4981576;28;20065;-79
2022/10/18 03:09:43;;;;;;;23.15;9.45;;;18.20;86.90;;;;;;4995741;28;20511;-79
2022/10/18 03:12:08;;;;;;;24.80;11.50;;;18.20;87.20;;;;;;5003295;28;20397;-79
2022/10/18 03:14:34;;;;;;;21.27;9.02;;;18.20;87.20;;;;;;4976048;28;20046;-79
2022/10/18 03:16:59;;;;;;;18.23;9.43;;;18.20;87.30;;;;;;4976178;28;20046;-77
2022/10/18 03:19:25;;;;;;;21.20;10.15;;;18.20;87.20;;;;;;4975886;28;20041;-77
2022/10/18 03:21:51;;;;;;;21.35;10.43;;;18.20;87.10;;;;;;4978177;28;20042;-77
2022/10/18 03:24:16;;;;;;;19.52;10.23;;;18.20;87.20;;;;;;4982143;28;20117;-77
2022/10/18 03:26:42;;;;;;;22.15;9.18;;;18.20;87.40;;;;;;4974801;28;20027;-77
2022/10/18 03:29:09;;;;;;;22.13;10.23;;;18.10;87.60;;;;;;4986541;28;20070;-79
2022/10/18 03:31:35;;;;;;;19.70;11.18;;;18.00;87.80;;;;;;4994330;28;20113;-76
2022/10/18 03:34:00;;;;;;;16.60;8.38;;;18.10;87.80;;;;;;4995281;28;20072;-77
2022/10/18 03:36:26;;;;;;;20.77;10.63;;;18.10;87.50;;;;;;4992602;28;20114;-80
2022/10/18 03:38:54;;;;;;;25.67;11.40;;;18.10;87.60;;;;;;4976028;28;20038;-79
2022/10/18 03:41:20;;;;;;;25.45;10.77;;;18.10;87.50;;;;;;4990998;28;20070;-77
2022/10/18 03:43:46;;;;;;;22.10;10.10;;;18.00;87.70;;;;;;4974981;28;20027;-80
2022/10/18 03:46:12;;;;;;;20.38;8.88;;;18.10;87.70;;;;;;4975788;28;20023;-77
2022/10/18 03:48:37;;;;;;;24.70;10.40;;;18.10;87.70;;;;;;4976532;28;20039;-77
2022/10/18 03:51:03;;;;;;;18.02;8.55;;;18.10;87.80;;;;;;4978695;28;20879;-79
2022/10/18 03:53:29;;;;;;;21.75;10.40;;;17.90;88.30;;;;;;4984554;28;20035;-77
2022/10/18 03:55:55;;;;;;;22.35;9.63;;;17.90;88.40;;;;;;4998462;28;20113;-77
2022/10/18 03:58:21;;;;;;;18.90;8.93;;;17.90;88.30;;;;;;4993160;28;20049;-77
2022/10/18 04:00:52;;;;;;;23.15;9.73;;;18.00;88.40;;;;;;4977962;28;20019;-77
2022/10/18 04:03:19;;;;;;;21.33;9.57;;;17.90;88.20;;;;;;4978104;28;20026;-77
2022/10/18 04:05:46;;;;;;;20.25;10.25;;;17.90;88.40;;;;;;4979407;28;20026;-77
2022/10/18 04:08:12;;;;;;;18.83;9.23;;;17.90;88.40;;;;;;4977416;28;20034;-77
2022/10/18 04:10:38;;;;;;;21.75;9.48;;;17.90;88.30;;;;;;4979062;28;20027;-77
2022/10/18 04:13:09;;;;;;;23.13;10.50;;;17.90;88.50;;;;;;4990030;28;20161;-77
2022/10/18 04:15:35;;;;;;;18.17;9.32;;;17.90;88.40;;;;;;5012960;28;20037;-77
2022/10/18 04:18:01;;;;;;;19.20;9.63;;;17.80;88.20;;;;;;4998324;28;20514;-77
2022/10/18 04:20:27;;;;;;;21.20;9.13;;;17.80;88.50;;;;;;4996164;28;20025;-76
2022/10/18 04:22:56;;;;;;;19.30;9.05;;;17.90;88.40;;;;;;4997710;28;20022;-79
2022/10/18 04:25:22;;;;;;;19.17;10.00;;;17.90;88.00;;;;;;5017703;28;20034;-76
2022/10/18 04:27:48;;;;;;;19.45;8.35;;;17.90;88.00;;;;;;5017417;28;20040;-79
2022/10/18 04:30:14;;;;;;;22.70;9.30;;;17.90;88.10;;;;;;5009676;28;20397;-75
2022/10/18 04:32:39;;;;;;;21.85;9.55;;;17.90;88.30;;;;;;4978611;28;20023;-78
2022/10/18 04:35:05;;;;;;;14.82;7.95;;;17.80;88.40;;;;;;4978647;28;20030;-79
2022/10/18 04:37:31;;;;;;;14.80;8.55;;;18.00;88.20;;;;;;4995220;28;20034;-76
2022/10/18 04:39:57;;;;;;;18.58;9.23;;;17.90;88.20;;;;;;4997097;28;20025;-76
2022/10/18 04:42:23;;;;;;;16.50;9.38;;;17.90;88.50;;;;;;4988445;28;20027;-74
2022/10/18 04:44:49;;;;;;;15.85;9.38;;;17.80;88.30;;;;;;4977964;28;20461;-74
2022/10/18 04:47:15;;;;;;;20.33;9.43;;;17.80;88.80;;;;;;4978504;28;20505;-74
2022/10/18 04:49:41;;;;;;;19.73;8.93;;;17.90;88.60;;;;;;4978015;28;20030;-75
2022/10/18 04:52:06;;;;;;;18.92;9.30;;;17.80;88.70;;;;;;4978400;28;20034;-77
2022/10/18 04:54:32;;;;;;;17.67;9.25;;;17.90;88.40;;;;;;4978461;28;20050;-76
2022/10/18 04:56:58;;;;;;;22.08;9.68;;;17.90;88.30;;;;;;4978543;28;20038;-74
2022/10/18 04:59:24;;;;;;;19.20;8.57;;;18.00;88.30;;;;;;4976826;28;20559;-76
2022/10/18 05:01:49;;;;;;;18.67;8.00;;;17.90;88.00;;;;;;4986358;28;20030;-76
2022/10/18 05:04:15;;;;;;;14.93;7.20;;;18.00;88.20;;;;;;4989960;28;20022;-78
2022/10/18 05:06:40;;;;;;;16.35;7.78;;;17.90;87.80;;;;;;4995921;28;20026;-76
2022/10/18 05:09:06;;;;;;;12.68;7.43;;;17.90;88.20;;;;;;5011499;28;20077;-77
2022/10/18 05:11:32;;;;;;;14.38;7.68;;;17.90;88.00;;;;;;4987140;28;20035;-76
2022/10/18 05:13:57;;;;;;;14.35;7.30;;;17.90;87.90;;;;;;4977363;28;20078;-76
2022/10/18 05:16:23;;;;;;;13.52;7.32;;;18.00;88.00;;;;;;4994875;28;20037;-76
2022/10/18 05:18:49;;;;;;;15.18;7.35;;;18.00;88.00;;;;;;4997766;28;20026;-77
2022/10/18 05:21:15;;;;;;;13.85;8.35;;;18.00;87.80;;;;;;4997972;28;20049;-76
2022/10/18 05:23:41;;;;;;;11.68;7.28;;;18.00;87.90;;;;;;5009286;28;21019;-75
2022/10/18 05:26:07;;;;;;;17.38;7.57;;;17.90;88.00;;;;;;5006913;28;20038;-75
2022/10/18 05:28:33;;;;;;;18.15;7.00;;;17.90;88.00;;;;;;4986890;28;20026;-75
2022/10/18 05:31:04;;;;;;;13.98;7.22;;;17.90;88.20;;;;;;4988241;28;20030;-76
2022/10/18 05:33:30;;;;;;;16.67;6.50;;;18.00;87.90;;;;;;4987429;28;20022;-75
2022/10/18 05:35:56;;;;;;;15.57;6.97;;;18.00;87.80;;;;;;4985750;28;20038;-75
2022/10/18 05:38:25;;;;;;;13.07;6.30;;;18.00;87.70;;;;;;4986294;28;20394;-76
2022/10/18 05:40:50;;;;;;;10.40;5.60;;;18.00;87.60;;;;;;4985239;28;20030;-79
2022/10/18 05:43:16;;;;;;;10.82;6.15;;;17.90;87.40;;;;;;4987533;28;20026;-78
2022/10/18 05:45:51;;;;;;;17.02;5.68;;;17.80;87.50;;;;;;4986347;28;20034;-79
2022/10/18 05:48:17;;;;;;;12.65;6.75;;;17.80;87.70;;;;;;4985949;28;20093;-78
2022/10/18 05:50:43;;;;;;;7.90;5.47;;;17.80;87.70;;;;;;4986825;28;20034;-78
2022/10/18 05:53:09;;;;;;;13.55;5.90;;;17.80;87.80;;;;;;4987259;28;20026;-78
2022/10/18 05:55:35;;;;;;;11.13;6.45;;;17.80;87.60;;;;;;4985149;28;20030;-78
2022/10/18 05:58:02;;;;;;;11.68;6.53;;;17.80;87.80;;;;;;4982314;28;20046;-78
2022/10/18 06:00:27;;;;;;;12.77;6.10;;;17.80;87.70;;;;;;5009061;28;20015;-77
2022/10/18 06:02:53;;;;;;;15.80;6.25;;;17.90;87.50;;;;;;4984821;28;20027;-75
2022/10/18 06:05:19;;;;;;;13.85;7.35;;;17.90;87.30;;;;;;4986931;28;20046;-75
2022/10/18 06:07:45;;;;;;;17.23;6.45;;;17.90;87.30;;;;;;4986145;28;20022;-75
2022/10/18 06:10:10;;;;;;;11.98;7.15;;;17.90;87.10;;;;;;4985095;28;20599;-74
2022/10/18 06:12:36;;;;;;;13.75;7.70;;;18.00;87.00;;;;;;4987306;28;20050;-75
2022/10/18 06:15:02;;;;;;;17.67;6.10;;;17.90;86.80;;;;;;4990763;28;20069;-74
2022/10/18 06:17:27;;;;;;;17.52;7.03;;;17.90;87.10;;;;;;5000305;28;20062;-75
2022/10/18 06:19:53;;;;;;;15.55;6.32;;;18.00;87.10;;;;;;4985469;28;20018;-75
2022/10/18 06:22:19;;;;;;;15.60;7.05;;;17.80;87.00;;;;;;4984073;28;20026;-75
2022/10/18 06:24:44;;;;;;;12.00;6.93;;;17.80;87.20;;;;;;5009800;28;20026;-74
2022/10/18 06:27:10;;;;;;;18.85;7.15;;;17.80;87.40;;;;;;4986157;28;20035;-74
2022/10/18 06:29:40;;;;;;;14.38;7.47;;;17.80;87.50;;;;;;4986891;28;20476;-74
2022/10/18 06:32:07;;;;;;;12.23;6.60;;;17.90;87.40;;;;;;4986924;28;20018;-74
2022/10/18 06:34:33;;;;;;;13.43;7.03;;;17.90;87.20;;;;;;4993023;28;20034;-74
2022/10/18 06:36:59;;;;;;;12.93;6.97;;;18.00;87.00;;;;;;4994408;28;20038;-74
2022/10/18 06:39:25;;;;;;;16.55;7.78;;;18.00;86.80;;;;;;4994770;28;20436;-74
2022/10/18 06:41:51;;;;;;;15.07;7.63;;;17.90;86.90;;;;;;4995289;28;20040;-74
2022/10/18 06:44:17;;;;;;;15.77;6.95;;;17.90;86.90;;;;;;4995031;28;20022;-74
2022/10/18 06:46:45;;;;;;;14.98;7.03;;;18.00;86.90;;;;;;4991535;28;20053;-73
2022/10/18 06:49:13;;;;;;;19.02;8.90;;;18.00;86.70;;;;;;4976905;28;20039;-74
2022/10/18 06:51:39;;;;;;;15.23;7.72;;;18.10;86.60;;;;;;4984652;28;20421;-77
2022/10/18 06:54:04;;;;;;;17.38;7.70;;;18.10;86.40;;;;;;4991004;28;20034;-74
2022/10/18 06:56:30;;;;;;;13.38;6.93;;;18.10;86.30;;;;;;4995393;28;20037;-74
2022/10/18 06:58:55;;;;;;;13.80;6.55;;;18.10;86.20;;;;;;4978129;28;20030;-74
2022/10/18 07:01:21;;;;;;;13.05;6.68;;;18.00;86.00;;;;;;4978316;28;20027;-74
2022/10/18 07:03:48;;;;;;;15.05;7.22;;;18.00;86.00;;;;;;4996153;28;20039;-74
2022/10/18 07:06:17;;;;;;;17.77;7.35;;;18.00;86.00;;;;;;4994909;28;20085;-74
2022/10/18 07:08:42;;;;;;;13.25;7.10;;;18.00;86.10;;;;;;4996127;28;20027;-74
2022/10/18 07:11:17;;;;;;;18.83;7.47;;;18.00;86.10;;;;;;5005194;28;20580;-75
2022/10/18 07:13:43;;;;;;;18.40;7.20;;;18.00;86.20;;;;;;4976523;28;20051;-74
2022/10/18 07:16:12;;;;;;;13.13;7.55;;;18.00;86.10;;;;;;4975230;28;20074;-74
2022/10/18 07:18:40;;;;;;;13.50;6.25;;;18.00;86.00;;;;;;4978175;28;20458;-74
2022/10/18 07:21:08;;;;;;;17.65;7.10;;;18.00;86.10;;;;;;4996142;28;20384;-74
2022/10/18 07:23:35;;;;;;;11.93;6.75;;;18.00;86.30;;;;;;5009772;28;20040;-74
2022/10/18 07:26:03;;;;;;;14.57;6.00;;;18.00;86.30;;;;;;5018102;28;20030;-74
2022/10/18 07:28:28;;;;;;;13.75;6.85;;;17.80;86.20;;;;;;5015809;28;20034;-74
2022/10/18 07:30:54;;;;;;;11.70;6.53;;;17.80;86.80;;;;;;4999363;28;20061;-74
2022/10/18 07:33:20;;;;;;;15.00;7.32;;;17.80;86.90;;;;;;4994066;28;20035;-74
2022/10/18 07:35:46;;;;;;;16.50;6.93;;;17.80;87.10;;;;;;4980418;28;20033;-74
2022/10/18 07:38:12;;;;;;;12.07;6.45;;;17.80;86.80;;;;;;4980285;28;20569;-74
2022/10/18 07:40:38;;;;;;;12.40;6.72;;;17.70;86.70;;;;;;4996858;28;20026;-74
2022/10/18 07:43:04;;;;;;;16.60;6.88;;;17.70;87.20;;;;;;5014781;28;20034;-74
2022/10/18 07:45:30;;;;;;;10.45;6.22;;;17.70;87.20;;;;;;4999552;28;20026;-74
2022/10/18 07:47:56;;;;;;;11.82;6.20;;;17.70;86.70;;;;;;4999005;28;20515;-74
2022/10/18 07:50:23;;;;;;;12.05;6.03;;;17.80;87.00;;;;;;4999450;28;20074;-74
2022/10/18 07:52:48;;;;;;;13.27;6.82;;;17.80;86.80;;;;;;4999825;28;20767;-74
2022/10/18 07:55:14;;;;;;;13.45;6.25;;;17.80;86.90;;;;;;4991139;28;20031;-74
2022/10/18 07:57:40;;;;;;;8.18;5.45;;;17.90;86.80;;;;;;4979888;28;20073;-74
2022/10/18 08:00:07;;;;;;;14.27;6.90;;;17.80;86.70;;;;;;4993145;28;20512;-74
2022/10/18 08:02:33;;;;;;;14.88;6.20;;;17.80;86.80;;;;;;4997564;28;20022;-74
2022/10/18 08:04:59;;;;;;;10.30;5.35;;;17.90;86.70;;;;;;5014391;28;20030;-74
2022/10/18 08:07:25;;;;;;;11.85;5.50;;;18.00;86.40;;;;;;4998114;28;20069;-74
2022/10/18 08:09:50;;;;;;;11.40;5.80;;;18.10;86.50;;;;;;5009974;28;20109;-74
2022/10/18 08:12:16;;;;;;;14.77;5.97;;;18.20;86.30;;;;;;4995889;28;20038;-74
2022/10/18 08:14:42;;;;;;;7.75;4.07;;;18.20;85.90;;;;;;4997743;28;20501;-74
2022/10/18 08:17:07;;;;;;;14.35;5.75;;;18.20;85.70;;;;;;4979358;28;20047;-74
2022/10/18 08:19:33;;;;;;;10.20;4.75;;;18.20;85.60;;;;;;4979769;28;20062;-74
2022/10/18 08:21:59;;;;;;;7.35;3.83;;;18.30;85.80;;;;;;4996167;28;20097;-74
2022/10/18 08:24:24;;;;;;;6.72;3.70;;;18.20;85.10;;;;;;5017361;28;20120;-74
2022/10/18 08:26:50;;;;;;;8.25;4.28;;;18.20;84.60;;;;;;5017144;28;20033;-74
2022/10/18 08:29:15;;;;;;;8.73;3.92;;;18.20;85.20;;;;;;5017140;28;20029;-74
2022/10/18 08:31:41;;;;;;;5.85;3.45;;;18.20;84.90;;;;;;4983202;28;20072;-74
2022/10/18 08:34:07;;;;;;;8.50;4.07;;;18.20;84.90;;;;;;4979255;28;20073;-74
2022/10/18 08:36:32;;;;;;;8.25;4.15;;;18.30;84.80;;;;;;4978617;28;20038;-74
2022/10/18 08:38:58;;;;;;;9.85;3.80;;;18.30;84.50;;;;;;4981276;28;20027;-74
2022/10/18 08:41:24;;;;;;;8.18;4.38;;;18.40;84.80;;;;;;4997217;28;20028;-74
2022/10/18 08:43:52;;;;;;;6.97;3.63;;;18.50;84.50;;;;;;4998602;28;20025;-74
2022/10/18 08:46:18;;;;;;;10.45;4.32;;;18.60;84.50;;;;;;4998368;28;20089;-74
2022/10/18 08:48:52;;;;;;;11.13;4.78;;;18.80;84.40;;;;;;4997952;28;20466;-74
2022/10/18 08:51:28;;;;;;;6.05;3.70;;;18.90;84.10;;;;;;4998345;28;20022;-73
2022/10/18 08:54:08;;;;;;;10.00;3.80;;;18.80;83.60;;;;;;4998405;28;20041;-74
2022/10/18 08:56:34;;;;;;;9.60;3.78;;;19.00;83.40;;;;;;5012753;28;20034;-74
2022/10/18 08:59:02;;;;;;;8.30;3.88;;;19.00;83.20;;;;;;4998315;28;20086;-74
2022/10/18 09:01:28;;;;;;;7.57;4.32;;;18.90;82.60;;;;;;5012991;28;20041;-74
2022/10/18 09:04:17;;;;;;;8.63;4.10;;;18.80;82.90;;;;;;5013140;28;20117;-74
2022/10/18 09:06:57;;;;;;;5.22;3.15;;;18.80;83.30;;;;;;4978527;28;20590;-75
2022/10/18 09:09:32;;;;;;;7.97;3.75;;;18.80;83.20;;;;;;4998647;28;20031;-74
2022/10/18 09:12:35;;;;;;;9.70;3.72;;;18.90;83.50;;;;;;4998157;28;20030;-74
2022/10/18 09:15:24;;;;;;;11.30;4.55;;;18.90;83.40;;;;;;4997513;28;20512;-74
2022/10/18 09:17:52;;;;;;;6.67;3.37;;;19.00;83.30;;;;;;4997382;28;20097;-74
2022/10/18 09:20:26;;;;;;;6.80;3.88;;;19.00;83.30;;;;;;4998026;28;20030;-74
2022/10/18 09:23:12;;;;;;;7.95;4.10;;;19.00;83.20;;;;;;5014870;28;20023;-74
2022/10/18 09:25:46;;;;;;;7.20;3.92;;;19.10;83.20;;;;;;4992781;28;20473;-74
2022/10/18 09:28:20;;;;;;;8.48;4.15;;;19.10;82.90;;;;;;4978314;28;20483;-74
2022/10/18 09:31:01;;;;;;;11.80;4.47;;;19.10;82.80;;;;;;4982975;28;20026;-74
2022/10/18 09:33:48;;;;;;;11.50;4.75;;;19.20;82.30;;;;;;4997613;28;20030;-74
2022/10/18 09:36:21;;;;;;;8.43;4.45;;;19.30;82.00;;;;;;4997459;28;20041;-74
2022/10/18 09:38:51;;;;;;;9.63;4.20;;;19.30;81.70;;;;;;4987630;28;20027;-74
2022/10/18 09:41:27;;;;;;;6.20;4.07;;;19.30;81.60;;;;;;4995037;28;20030;-74
2022/10/18 09:44:07;;;;;;;8.60;4.40;;;19.30;81.80;;;;;;5012507;28;20117;-74
2022/10/18 09:46:40;;;;;;;10.43;4.70;;;19.30;82.30;;;;;;4995166;28;20070;-74
2022/10/18 09:49:22;;;;;;;7.88;3.78;;;19.40;82.10;;;;;;4977863;28;20140;-74
2022/10/18 09:51:49;;;;;;;5.30;3.00;;;19.50;82.00;;;;;;4978447;28;20030;-74
2022/10/18 09:54:31;;;;;;;6.15;3.00;;;19.40;81.60;;;;;;4977902;28;20027;-74
2022/10/18 09:57:10;;;;;;;8.35;3.22;;;19.50;81.40;;;;;;4977766;28;20030;-74
2022/10/18 09:59:53;;;;;;;6.85;3.00;;;19.50;81.70;;;;;;4992591;28;20015;-74
2022/10/18 10:02:21;;;;;;;5.22;3.13;;;19.40;81.60;;;;;;4976286;28;20043;-74
2022/10/18 10:04:48;;;;;;;5.88;2.97;;;19.40;81.50;;;;;;4976476;28;20029;-74
2022/10/18 10:07:18;;;;;;;6.93;2.70;;;19.30;81.90;;;;;;4977535;28;20034;-74
2022/10/18 10:09:45;;;;;;;;;;;19.40;81.70;;;;;;4976687;28;20057;-74
2022/10/18 10:12:46;;;;;;;3.28;2.50;;;19.30;81.70;;;;;;4994177;28;19913;-74
2022/10/18 10:15:24;;;;;;;6.30;2.47;;;19.20;81.80;;;;;;4976980;28;20054;-74
2022/10/18 10:18:05;;;;;;;5.80;2.22;;;19.30;81.80;;;;;;4992922;28;20050;-74
2022/10/18 10:20:44;;;;;;;5.25;2.45;;;19.30;81.90;;;;;;4996834;28;20030;-75
2022/10/18 10:23:28;;;;;;;5.53;2.65;;;19.40;81.00;;;;;;5008492;28;20033;-74
2022/10/18 10:25:58;;;;;;;3.47;2.10;;;19.40;80.80;;;;;;4986372;28;20473;-74
2022/10/18 10:28:40;;;;;;;4.55;2.72;;;19.40;81.00;;;;;;4983536;28;20081;-74
2022/10/18 10:31:33;;;;;;;3.97;2.00;;;19.50;81.40;;;;;;4995144;28;20027;-74
2022/10/18 10:34:03;;;;;;;3.05;2.10;;;19.50;81.00;;;;;;4993577;28;20062;-74
2022/10/18 10:36:30;;;;;;;2.65;1.92;;;19.40;80.70;;;;;;4995890;28;20050;-74
2022/10/18 10:39:11;;;;;;;3.25;2.10;;;19.40;81.40;;;;;;5011500;28;20031;-74
2022/10/18 10:41:39;;;;;;;5.88;2.88;;;19.30;81.30;;;;;;4996007;28;20437;-74
2022/10/18 10:44:22;;;;;;;5.00;2.78;;;19.40;81.60;;;;;;4996397;28;20065;-74
2022/10/18 10:46:49;;;;;;;4.68;2.58;;;19.40;81.60;;;;;;4989311;28;20393;-74
2022/10/18 10:49:19;;;;;;;5.40;2.58;;;19.30;81.60;;;;;;4996677;28;20034;-74
2022/10/18 10:51:52;;;;;;;4.78;2.38;;;19.30;81.70;;;;;;4995270;28;20027;-74
2022/10/18 10:54:23;;;;;;;4.55;2.30;;;19.40;81.70;;;;;;4995462;28;20034;-74
2022/10/18 10:57:02;;;;;;;6.80;2.55;;;19.30;82.00;;;;;;4991440;28;20023;-74
2022/10/18 10:59:37;;;;;;;3.63;2.47;;;19.30;82.10;;;;;;4980238;28;20038;-74
2022/10/18 11:02:22;;;;;;;4.72;2.65;;;19.40;82.00;;;;;;4982086;28;20023;-74
2022/10/18 11:04:50;;;;;;;5.07;2.88;;;19.50;81.40;;;;;;4998234;28;20034;-74
2022/10/18 11:07:40;;;;;;;3.65;2.17;;;19.50;81.70;;;;;;4998946;28;20030;-74
2022/10/18 11:10:08;;;;;;;7.20;3.17;;;19.60;81.50;;;;;;5018056;28;20188;-74
2022/10/18 11:12:41;;;;;;;3.83;2.20;;;19.40;81.20;;;;;;5002211;28;20053;-74
2022/10/18 11:15:19;;;;;;;5.05;2.47;;;19.50;81.50;;;;;;5002591;28;20390;-74
2022/10/18 11:18:03;;;;;;;4.90;2.80;;;19.70;81.50;;;;;;5017250;28;20038;-74
2022/10/18 11:20:39;;;;;;;4.93;2.70;;;19.60;81.10;;;;;;5002746;28;20092;-75
2022/10/18 11:23:13;;;;;;;6.88;3.00;;;19.70;81.40;;;;;;5028631;28;20029;-74
2022/10/18 11:26:00;;;;;;;7.25;2.42;;;19.70;81.10;;;;;;5017713;28;20033;-73
2022/10/18 11:28:28;;;;;;;5.07;2.70;;;19.80;81.30;;;;;;5002063;28;20030;-74
2022/10/18 11:31:28;;;;;;;4.38;2.45;;;19.80;81.50;;;;;;5002412;28;20027;-74
2022/10/18 11:34:15;;;;;;;4.43;3.00;;;19.70;81.50;;;;;;5001976;28;20022;-74
2022/10/18 11:36:49;;;;;;;5.28;2.72;;;19.80;81.70;;;;;;5017441;28;20038;-74
2022/10/18 11:39:53;;;;;;;6.68;2.67;;;19.90;81.50;;;;;;5000127;28;20026;-74
2022/10/18 11:42:39;;;;;;;6.72;3.30;;;19.80;81.30;;;;;;4982952;28;20077;-74
2022/10/18 11:45:17;;;;;;;7.82;2.90;;;19.90;81.40;;;;;;4982912;28;20490;-74
2022/10/18 11:47:56;;;;;;;4.90;2.72;;;19.80;81.40;;;;;;5000596;28;20030;-74
2022/10/18 11:50:47;;;;;;;3.90;2.67;;;19.90;81.30;;;;;;5002653;28;20152;-74
2022/10/18 11:54:01;;;;;;;5.93;2.90;;;19.90;81.70;;;;;;5016860;28;20037;-74
2022/10/18 11:56:31;;;;;;;6.53;3.40;;;20.10;81.10;;;;;;5002289;28;20040;-74
2022/10/18 11:59:32;;;;;;;4.53;2.80;;;20.10;81.00;;;;;;4995446;28;20023;-74
2022/10/18 12:02:20;;;;;;;7.45;3.28;;;20.20;81.00;;;;;;4982902;28;20063;-74
2022/10/18 12:04:53;;;;;;;3.95;2.80;;;20.20;81.00;;;;;;4981704;28;20022;-74
2022/10/18 12:07:21;;;;;;;6.13;2.97;;;20.10;81.00;;;;;;4983197;28;20026;-74
2022/10/18 12:09:49;;;;;;;5.95;3.08;;;20.10;81.40;;;;;;4980216;28;20477;-74
2022/10/18 12:12:20;;;;;;;5.38;3.40;;;20.20;81.20;;;;;;4996565;28;20378;-74
2022/10/18 12:14:57;;;;;;;8.13;3.92;;;20.20;81.50;;;;;;4999118;28;20085;-73
2022/10/18 12:17:42;;;;;;;4.93;2.90;;;20.20;81.40;;;;;;4998814;28;20038;-74
2022/10/18 12:20:19;;;;;;;6.72;3.50;;;20.10;81.30;;;;;;4999081;28;20105;-74
2022/10/18 12:23:15;;;;;;;7.97;4.47;;;20.20;81.70;;;;;;5006762;28;20030;-74
2022/10/18 12:25:45;;;;;;;4.15;3.00;;;20.20;81.70;;;;;;5017419;28;20030;-74
2022/10/18 12:28:53;;;;;;;7.20;3.80;;;20.20;81.70;;;;;;5017310;28;20562;-74
2022/10/18 12:31:28;;;;;;;9.50;4.00;;;20.10;81.60;;;;;;5008102;28;20390;-74
2022/10/18 12:33:58;;;;;;;9.85;3.95;;;20.10;82.20;;;;;;4979298;28;20023;-74
2022/10/18 12:37:12;;;;;;;6.50;3.88;;;20.20;82.20;;;;;;4991441;28;20030;-74
2022/10/18 12:39:49;;;;;;;8.55;4.45;;;20.20;82.00;;;;;;5013926;28;20030;-74
2022/10/18 12:42:27;;;;;;;5.05;3.28;;;20.30;82.20;;;;;;5013147;28;20022;-74
2022/10/18 12:45:15;;;;;;;10.98;4.78;;;20.20;81.60;;;;;;4998588;28;20034;-74
2022/10/18 12:47:40;;;;;;;7.78;4.68;;;20.30;81.90;;;;;;4997021;28;20034;-74
2022/10/18 12:50:37;;;;;;;11.70;5.10;;;20.20;82.10;;;;;;4998575;28;20541;-74
2022/10/18 12:53:08;;;;;;;12.07;4.50;;;20.30;82.10;;;;;;4978918;28;20512;-74
2022/10/18 12:55:38;;;;;;;10.82;5.22;;;20.30;82.00;;;;;;4978875;28;20041;-74
2022/10/18 12:58:31;;;;;;;9.52;5.07;;;20.30;82.10;;;;;;4977677;28;20023;-74
2022/10/18 13:01:00;;;;;;;12.05;4.65;;;20.30;81.90;;;;;;4979141;28;20027;-75
2022/10/18 13:03:26;;;;;;;9.43;4.97;;;20.20;82.00;;;;;;4993571;28;20110;-74